createdAt,value
2018-09-17T00:00:53.480Z,7.90
2018-09-17T00:01:53.469Z,4.40
2018-09-17T00:02:53.457Z,4.90
2018-09-17T00:03:53.428Z,4.40
2018-09-17T00:04:53.415Z,6.20
2018-09-17T00:05:53.403Z,4.50
2018-09-17T00:06:53.434Z,5.00
2018-09-17T00:07:53.400Z,5.90
2018-09-17T00:08:53.365Z,9.70
2018-09-17T00:09:53.377Z,5.50
2018-09-17T00:10:53.363Z,5.80
2018-09-17T00:11:53.351Z,4.40
2018-09-17T00:12:53.360Z,6.90
2018-09-17T00:13:53.320Z,7.40
2018-09-17T00:14:53.313Z,5.90
2018-09-17T00:15:53.311Z,7.30
2018-09-17T00:16:53.283Z,7.20
2018-09-17T00:17:53.330Z,7.30
2018-09-17T00:18:53.260Z,4.70
2018-09-17T00:19:53.275Z,5.40
2018-09-17T00:20:53.242Z,5.50
2018-09-17T00:21:53.259Z,6.10
2018-09-17T00:22:53.224Z,6.50
2018-09-17T00:23:53.218Z,6.30
2018-09-17T00:24:53.229Z,6.70
2018-09-17T00:25:53.179Z,7.00
2018-09-17T00:26:53.213Z,6.80
2018-09-17T00:27:53.248Z,5.90
2018-09-17T00:28:53.148Z,7.40
2018-09-17T00:29:53.160Z,6.40
2018-09-17T00:30:53.215Z,7.00
2018-09-17T00:31:53.153Z,7.20
2018-09-17T00:32:53.164Z,5.70
2018-09-17T00:33:53.102Z,4.90
2018-09-17T00:34:53.111Z,5.70
2018-09-17T00:35:53.130Z,7.90
2018-09-17T00:36:53.072Z,6.90
2018-09-17T00:37:53.062Z,5.70
2018-09-17T00:38:53.044Z,5.90
2018-09-17T00:39:53.031Z,6.90
2018-09-17T00:40:53.009Z,7.00
2018-09-17T00:41:53.049Z,6.40
2018-09-17T00:42:52.994Z,6.00
2018-09-17T00:43:52.992Z,6.90
2018-09-17T00:44:53.000Z,7.20
2018-09-17T00:45:52.967Z,6.80
2018-09-17T00:46:52.970Z,8.40
2018-09-17T00:47:52.954Z,8.70
2018-09-17T00:48:52.929Z,5.80
2018-09-17T00:49:52.926Z,6.90
2018-09-17T00:50:52.960Z,6.50
2018-09-17T00:51:52.891Z,6.60
2018-09-17T00:52:52.886Z,6.00
2018-09-17T00:53:52.883Z,6.20
2018-09-17T00:54:52.871Z,6.90
2018-09-17T00:55:52.890Z,7.20
2018-09-17T00:56:52.857Z,7.60
2018-09-17T00:57:52.938Z,8.00
2018-09-17T00:58:52.860Z,7.60
2018-09-17T00:59:52.824Z,7.00
2018-09-17T01:00:52.801Z,8.30
2018-09-17T01:01:52.817Z,6.10
2018-09-17T01:02:52.784Z,5.90
2018-09-17T01:03:52.793Z,4.70
2018-09-17T01:04:52.757Z,5.90
2018-09-17T01:05:52.771Z,5.40
2018-09-17T01:06:52.740Z,6.60
2018-09-17T01:07:52.748Z,7.80
2018-09-17T01:08:52.727Z,7.50
2018-09-17T01:09:52.706Z,5.80
2018-09-17T01:10:52.694Z,8.80
2018-09-17T01:11:52.704Z,8.20
2018-09-17T01:12:52.668Z,8.00
2018-09-17T01:13:52.706Z,7.10
2018-09-17T01:14:52.659Z,8.10
2018-09-17T01:15:52.626Z,11.50
2018-09-17T01:16:52.631Z,7.10
2018-09-17T01:17:52.621Z,10.20
2018-09-17T01:18:52.610Z,8.60
2018-09-17T01:19:52.592Z,9.00
2018-09-17T01:20:52.574Z,9.70
2018-09-17T01:21:52.601Z,8.70
2018-09-17T01:22:52.574Z,7.00
2018-09-17T01:23:52.575Z,5.70
2018-09-17T01:24:52.545Z,9.80
2018-09-17T01:25:52.519Z,7.10
2018-09-17T01:26:52.529Z,10.90
2018-09-17T01:27:52.578Z,8.20
2018-09-17T01:28:52.507Z,7.00
2018-09-17T01:29:52.482Z,5.40
2018-09-17T01:30:52.496Z,6.80
2018-09-17T01:31:52.475Z,7.70
2018-09-17T01:32:52.435Z,10.40
2018-09-17T01:33:52.448Z,8.30
2018-09-17T01:34:52.461Z,7.30
2018-09-17T01:35:52.403Z,6.70
2018-09-17T01:36:52.443Z,9.00
2018-09-17T01:37:52.377Z,9.00
2018-09-17T01:38:52.374Z,8.60
2018-09-17T01:39:52.360Z,6.20
2018-09-17T01:40:52.390Z,8.70
2018-09-17T01:41:52.391Z,10.30
2018-09-17T01:42:52.323Z,8.10
2018-09-17T01:43:52.317Z,10.10
2018-09-17T01:44:52.308Z,9.20
2018-09-17T01:45:52.295Z,7.90
2018-09-17T01:46:52.301Z,7.50
2018-09-17T01:47:52.269Z,11.30
2018-09-17T01:48:52.324Z,9.60
2018-09-17T01:49:52.246Z,6.30
2018-09-17T01:50:52.240Z,7.40
2018-09-17T01:51:52.239Z,9.10
2018-09-17T01:52:52.242Z,6.10
2018-09-17T01:53:52.202Z,6.90
2018-09-17T01:54:52.263Z,9.40
2018-09-17T01:55:52.201Z,11.40
2018-09-17T01:56:52.176Z,8.40
2018-09-17T01:57:52.160Z,8.80
2018-09-17T01:58:52.144Z,7.50
2018-09-17T01:59:52.135Z,8.20
2018-09-17T02:00:52.137Z,8.60
2018-09-17T02:01:52.136Z,7.60
2018-09-17T02:02:52.111Z,6.70
2018-09-17T02:03:52.093Z,10.50
2018-09-17T02:04:52.100Z,7.80
2018-09-17T02:05:52.070Z,7.90
2018-09-17T02:06:52.096Z,10.40
2018-09-17T02:07:52.080Z,7.20
2018-09-17T02:08:52.128Z,7.30
2018-09-17T02:09:52.034Z,6.80
2018-09-17T02:10:52.013Z,10.20
2018-09-17T02:11:52.022Z,7.40
2018-09-17T02:12:52.035Z,8.60
2018-09-17T02:13:52.001Z,8.00
2018-09-17T02:14:51.979Z,9.70
2018-09-17T02:15:52.000Z,11.90
2018-09-17T02:16:51.950Z,8.00
2018-09-17T02:17:51.939Z,9.60
2018-09-17T02:18:51.957Z,7.50
2018-09-17T02:19:51.919Z,8.60
2018-09-17T02:20:51.904Z,7.50
2018-09-17T02:21:51.943Z,8.30
2018-09-17T02:22:51.885Z,8.60
2018-09-17T02:23:51.894Z,10.70
2018-09-17T02:24:51.859Z,8.20
2018-09-17T02:25:51.855Z,7.20
2018-09-17T02:26:51.848Z,9.40
2018-09-17T02:27:51.872Z,8.50
2018-09-17T02:28:51.823Z,12.00
2018-09-17T02:29:51.851Z,9.60
2018-09-17T02:30:51.797Z,9.70
2018-09-17T02:31:51.784Z,8.10
2018-09-17T02:32:51.778Z,10.50
2018-09-17T02:33:51.789Z,10.30
2018-09-17T02:34:51.752Z,8.40
2018-09-17T02:35:51.790Z,12.20
2018-09-17T02:36:51.730Z,11.70
2018-09-17T02:37:51.719Z,10.10
2018-09-17T02:38:51.706Z,8.80
2018-09-17T02:39:51.695Z,9.90
2018-09-17T02:40:51.687Z,8.30
2018-09-17T02:41:51.730Z,8.80
2018-09-17T02:42:51.673Z,12.60
2018-09-17T02:43:51.650Z,14.40
2018-09-17T02:44:51.647Z,8.30
2018-09-17T02:45:51.637Z,8.70
2018-09-17T02:46:51.627Z,8.10
2018-09-17T02:47:51.663Z,9.70
2018-09-17T02:48:51.599Z,11.00
2018-09-17T02:49:51.590Z,9.80
2018-09-17T02:50:51.585Z,8.60
2018-09-17T02:51:51.571Z,7.70
2018-09-17T02:52:51.574Z,11.90
2018-09-17T02:53:51.598Z,11.30
2018-09-17T02:54:51.531Z,9.80
2018-09-17T02:55:51.522Z,11.40
2018-09-17T02:56:51.516Z,10.70
2018-09-17T02:57:51.500Z,13.60
2018-09-17T02:58:51.487Z,9.70
2018-09-17T02:59:51.490Z,9.90
2018-09-17T03:00:51.502Z,9.10
2018-09-17T03:01:51.455Z,11.00
2018-09-17T03:02:51.442Z,9.60
2018-09-17T03:03:51.430Z,10.20
2018-09-17T03:04:51.422Z,9.00
2018-09-17T03:05:51.427Z,9.70
2018-09-17T03:06:51.433Z,11.50
2018-09-17T03:07:51.404Z,9.10
2018-09-17T03:08:51.387Z,11.60
2018-09-17T03:09:51.363Z,9.30
2018-09-17T03:10:51.358Z,9.70
2018-09-17T03:11:51.378Z,10.10
2018-09-17T03:12:51.334Z,8.90
2018-09-17T03:13:51.326Z,11.40
2018-09-17T03:14:59.213Z,14.70
2018-09-17T03:15:51.316Z,10.40
2018-09-17T03:16:51.308Z,11.30
2018-09-17T03:17:51.304Z,9.60
2018-09-17T03:18:51.305Z,12.40
2018-09-17T03:19:58.855Z,11.50
2018-09-17T03:20:51.364Z,9.10
2018-09-17T03:21:51.311Z,8.80
2018-09-17T03:22:51.269Z,9.90
2018-09-17T03:23:51.261Z,8.90
2018-09-17T03:24:51.226Z,8.60
2018-09-17T03:25:51.188Z,10.70
2018-09-17T03:26:51.185Z,8.30
2018-09-17T03:27:51.164Z,9.60
2018-09-17T03:28:51.188Z,9.50
2018-09-17T03:29:51.166Z,8.40
2018-09-17T03:30:51.133Z,10.30
2018-09-17T03:31:51.138Z,10.60
2018-09-17T03:32:51.186Z,9.60
2018-09-17T03:33:51.110Z,8.70
2018-09-17T03:34:51.088Z,9.00
2018-09-17T03:35:51.114Z,11.40
2018-09-17T03:36:51.065Z,10.90
2018-09-17T03:37:51.056Z,9.10
2018-09-17T03:38:51.072Z,8.50
2018-09-17T03:39:51.033Z,10.30
2018-09-17T03:40:51.020Z,8.80
2018-09-17T03:41:51.026Z,8.00
2018-09-17T03:42:51.008Z,9.70
2018-09-17T03:43:51.009Z,12.70
2018-09-17T03:44:50.984Z,9.50
2018-09-17T03:45:50.966Z,10.80
2018-09-17T03:46:51.058Z,8.80
2018-09-17T03:47:50.958Z,8.30
2018-09-17T03:48:50.936Z,10.60
2018-09-17T03:49:50.957Z,9.20
2018-09-17T03:50:50.912Z,9.50
2018-09-17T03:51:50.900Z,9.50
2018-09-17T03:52:50.909Z,11.60
2018-09-17T03:53:50.891Z,11.70
2018-09-17T03:54:50.867Z,10.10
2018-09-17T03:55:50.935Z,12.30
2018-09-17T03:56:50.844Z,10.00
2018-09-17T03:57:50.834Z,9.00
2018-09-17T03:58:50.825Z,9.50
2018-09-17T03:59:50.813Z,11.50
2018-09-17T04:00:50.820Z,11.20
2018-09-17T04:01:50.867Z,9.60
2018-09-17T04:02:50.780Z,9.20
2018-09-17T04:03:50.769Z,9.00
2018-09-17T04:04:50.755Z,9.80
2018-09-17T04:05:50.744Z,8.70
2018-09-17T04:06:50.737Z,8.90
2018-09-17T04:07:50.767Z,10.10
2018-09-17T04:08:50.712Z,9.90
2018-09-17T04:09:50.727Z,9.90
2018-09-17T04:10:50.695Z,7.90
2018-09-17T04:11:50.683Z,12.10
2018-09-17T04:12:50.669Z,8.40
2018-09-17T04:13:50.673Z,11.10
2018-09-17T04:14:58.703Z,8.00
2018-09-17T04:15:50.669Z,10.40
2018-09-17T04:16:50.639Z,14.20
2018-09-17T04:17:50.640Z,10.70
2018-09-17T04:18:50.604Z,9.70
2018-09-17T04:19:50.603Z,11.30
2018-09-17T04:20:50.622Z,9.50
2018-09-17T04:21:50.668Z,10.00
2018-09-17T04:22:50.693Z,8.80
2018-09-17T04:23:50.619Z,10.90
2018-09-17T04:24:50.555Z,10.30
2018-09-17T04:25:50.526Z,8.10
2018-09-17T04:26:50.544Z,12.20
2018-09-17T04:27:50.504Z,11.40
2018-09-17T04:28:50.518Z,11.20
2018-09-17T04:29:50.482Z,9.60
2018-09-17T04:30:50.498Z,10.10
2018-09-17T04:31:50.463Z,10.60
2018-09-17T04:32:50.447Z,12.30
2018-09-17T04:33:50.439Z,12.90
2018-09-17T04:34:50.455Z,10.50
2018-09-17T04:35:50.418Z,10.20
2018-09-17T04:36:50.442Z,8.50
2018-09-17T04:37:50.393Z,8.40
2018-09-17T04:38:50.386Z,9.10
2018-09-17T04:39:50.414Z,8.40
2018-09-17T04:40:50.364Z,8.70
2018-09-17T04:41:50.411Z,9.00
2018-09-17T04:42:50.363Z,9.50
2018-09-17T04:43:57.966Z,9.70
2018-09-17T04:44:50.414Z,8.90
2018-09-17T04:45:50.322Z,11.20
2018-09-17T04:46:50.302Z,11.20
2018-09-17T04:47:50.336Z,10.60
2018-09-17T04:48:50.373Z,11.10
2018-09-17T04:49:50.300Z,14.30
2018-09-17T04:50:50.326Z,10.10
2018-09-17T04:51:50.248Z,11.60
2018-09-17T04:52:50.228Z,14.20
2018-09-17T04:53:50.243Z,11.20
2018-09-17T04:54:50.264Z,9.70
2018-09-17T04:55:50.194Z,11.30
2018-09-17T04:56:50.200Z,10.70
2018-09-17T04:57:50.236Z,10.30
2018-09-17T04:58:50.163Z,11.20
2018-09-17T04:59:50.154Z,11.40
2018-09-17T05:00:50.203Z,9.20
2018-09-17T05:01:50.139Z,10.70
2018-09-17T05:02:50.171Z,10.40
2018-09-17T05:03:50.122Z,13.60
2018-09-17T05:04:50.096Z,11.30
2018-09-17T05:05:50.087Z,10.60
2018-09-17T05:06:50.084Z,11.00
2018-09-17T05:07:50.085Z,10.80
2018-09-17T05:08:50.201Z,11.70
2018-09-17T05:09:50.049Z,14.80
2018-09-17T05:10:50.038Z,12.00
2018-09-17T05:11:50.031Z,11.30
2018-09-17T05:12:50.012Z,14.90
2018-09-17T05:13:50.025Z,11.50
2018-09-17T05:14:50.019Z,13.30
2018-09-17T05:15:50.017Z,15.60
2018-09-17T05:16:49.979Z,14.10
2018-09-17T05:17:49.953Z,14.70
2018-09-17T05:18:49.948Z,13.30
2018-09-17T05:19:50.002Z,11.80
2018-09-17T05:20:49.931Z,13.90
2018-09-17T05:21:49.909Z,19.00
2018-09-17T05:22:49.915Z,13.70
2018-09-17T05:23:49.897Z,12.00
2018-09-17T05:24:49.881Z,15.60
2018-09-17T05:25:49.909Z,16.80
2018-09-17T05:26:49.877Z,13.40
2018-09-17T05:27:49.855Z,12.30
2018-09-17T05:28:49.834Z,11.40
2018-09-17T05:29:49.822Z,17.10
2018-09-17T05:30:49.824Z,20.30
2018-09-17T05:31:49.814Z,16.10
2018-09-17T05:32:49.786Z,15.70
2018-09-17T05:33:49.777Z,14.80
2018-09-17T05:34:49.767Z,18.50
2018-09-17T05:35:49.756Z,19.90
2018-09-17T05:36:49.768Z,17.90
2018-09-17T05:37:49.743Z,16.60
2018-09-17T05:38:49.723Z,19.20
2018-09-17T05:39:49.710Z,17.10
2018-09-17T05:40:49.723Z,24.50
2018-09-17T05:41:49.710Z,18.80
2018-09-17T05:42:49.681Z,18.70
2018-09-17T05:43:49.699Z,20.60
2018-09-17T05:44:49.718Z,22.10
2018-09-17T05:45:49.645Z,19.50
2018-09-17T05:46:49.645Z,21.40
2018-09-17T05:47:49.639Z,25.90
2018-09-17T05:48:49.630Z,24.70
2018-09-17T05:49:49.604Z,26.10
2018-09-17T05:50:49.614Z,32.20
2018-09-17T05:51:49.608Z,35.80
2018-09-17T05:52:49.570Z,37.80
2018-09-17T05:53:49.580Z,37.10
2018-09-17T05:54:49.562Z,40.30
2018-09-17T05:55:49.532Z,38.30
2018-09-17T05:56:49.525Z,35.10
2018-09-17T05:57:49.510Z,34.00
2018-09-17T05:58:49.504Z,35.70
2018-09-17T05:59:49.488Z,32.20
2018-09-17T06:00:49.497Z,26.90
2018-09-17T06:01:49.466Z,27.80
2018-09-17T06:02:49.478Z,30.80
2018-09-17T06:03:49.448Z,30.70
2018-09-17T06:04:49.454Z,29.60
2018-09-17T06:05:49.495Z,25.20
2018-09-17T06:06:49.446Z,26.60
2018-09-17T06:07:49.417Z,28.00
2018-09-17T06:08:49.410Z,25.90
2018-09-17T06:09:49.454Z,24.80
2018-09-17T06:10:49.369Z,20.10
2018-09-17T06:11:49.401Z,24.90
2018-09-17T06:12:49.370Z,22.40
2018-09-17T06:13:49.338Z,23.20
2018-09-17T06:14:49.322Z,24.60
2018-09-17T06:15:49.312Z,26.00
2018-09-17T06:16:49.314Z,24.70
2018-09-17T06:17:49.305Z,24.00
2018-09-17T06:18:49.302Z,22.50
2018-09-17T06:19:49.299Z,22.90
2018-09-17T06:20:49.255Z,27.00
2018-09-17T06:21:49.244Z,23.40
2018-09-17T06:22:49.234Z,18.10
2018-09-17T06:23:49.227Z,17.50
2018-09-17T06:24:49.242Z,21.80
2018-09-17T06:25:49.285Z,18.40
2018-09-17T06:26:49.191Z,23.00
2018-09-17T06:27:49.180Z,19.20
2018-09-17T06:28:49.241Z,19.70
2018-09-17T06:29:49.161Z,15.20
2018-09-17T06:30:49.147Z,17.50
2018-09-17T06:31:49.191Z,18.00
2018-09-17T06:32:49.127Z,17.20
2018-09-17T06:33:49.115Z,15.00
2018-09-17T06:34:49.143Z,19.00
2018-09-17T06:35:49.091Z,20.10
2018-09-17T06:36:49.079Z,15.80
2018-09-17T06:37:49.104Z,20.20
2018-09-17T06:38:49.061Z,17.10
2018-09-17T06:39:49.058Z,18.60
2018-09-17T06:40:49.053Z,16.80
2018-09-17T06:41:49.037Z,15.90
2018-09-17T06:42:49.018Z,15.70
2018-09-17T06:43:49.004Z,14.80
2018-09-17T06:44:49.011Z,14.50
2018-09-17T06:45:48.981Z,16.30
2018-09-17T06:46:49.000Z,14.90
2018-09-17T06:47:48.962Z,15.30
2018-09-17T06:48:48.962Z,18.90
2018-09-17T06:49:48.967Z,19.70
2018-09-17T06:50:48.925Z,18.50
2018-09-17T06:51:48.915Z,18.50
2018-09-17T06:52:48.917Z,14.80
2018-09-17T06:53:49.007Z,15.50
2018-09-17T06:54:48.883Z,19.40
2018-09-17T06:55:48.871Z,17.00
2018-09-17T06:56:48.862Z,15.90
2018-09-17T06:57:48.871Z,21.30
2018-09-17T06:58:48.836Z,19.30
2018-09-17T06:59:48.928Z,18.10
2018-09-17T07:00:48.862Z,16.90
2018-09-17T07:01:48.831Z,12.50
2018-09-17T07:02:48.814Z,15.70
2018-09-17T07:03:48.803Z,17.90
2018-09-17T07:04:48.779Z,17.60
2018-09-17T07:05:48.759Z,15.00
2018-09-17T07:06:48.765Z,16.10
2018-09-17T07:07:48.741Z,16.90
2018-09-17T07:08:48.776Z,15.20
2018-09-17T07:09:48.834Z,20.10
2018-09-17T07:10:48.705Z,18.30
2018-09-17T07:11:48.706Z,17.30
2018-09-17T07:12:48.684Z,19.20
2018-09-17T07:13:48.672Z,16.60
2018-09-17T07:14:48.709Z,14.20
2018-09-17T07:15:48.749Z,15.30
2018-09-17T07:16:48.678Z,16.00
2018-09-17T07:17:48.664Z,17.10
2018-09-17T07:18:48.619Z,16.60
2018-09-17T07:19:56.351Z,13.60
2018-09-17T07:20:48.664Z,13.70
2018-09-17T07:21:48.609Z,15.20
2018-09-17T07:22:48.613Z,14.90
2018-09-17T07:23:48.629Z,18.70
2018-09-17T07:24:48.854Z,20.10
2018-09-17T07:25:48.574Z,14.20
2018-09-17T07:26:48.526Z,16.20
2018-09-17T07:27:48.556Z,15.40
2018-09-17T07:28:48.504Z,13.40
2018-09-17T07:29:48.576Z,18.50
2018-09-17T07:30:48.525Z,13.10
2018-09-17T07:31:48.473Z,16.10
2018-09-17T07:32:48.464Z,18.10
2018-09-17T07:33:48.450Z,12.70
2018-09-17T07:34:48.444Z,12.30
2018-09-17T07:35:48.534Z,11.30
2018-09-17T07:36:48.422Z,12.40
2018-09-17T07:37:48.424Z,13.90
2018-09-17T07:38:48.393Z,11.40
2018-09-17T07:39:56.057Z,11.70
2018-09-17T07:40:48.543Z,12.40
2018-09-17T07:41:48.423Z,14.90
2018-09-17T07:42:48.374Z,11.70
2018-09-17T07:43:48.420Z,13.60
2018-09-17T07:44:48.412Z,9.10
2018-09-17T07:45:48.389Z,12.30
2018-09-17T07:46:48.653Z,11.90
2018-09-17T07:47:48.356Z,12.80
2018-09-17T07:48:48.285Z,11.70
2018-09-17T07:49:56.574Z,10.40
2018-09-17T07:50:48.320Z,13.40
2018-09-17T07:51:48.440Z,11.60
2018-09-17T07:52:48.452Z,14.40
2018-09-17T07:53:48.310Z,13.30
2018-09-17T07:54:48.291Z,11.00
2018-09-17T07:55:48.227Z,9.30
2018-09-17T07:56:48.252Z,11.40
2018-09-17T07:57:48.202Z,10.40
2018-09-17T07:58:48.334Z,11.00
2018-09-17T07:59:48.160Z,14.60
2018-09-17T08:00:48.197Z,10.50
2018-09-17T08:01:48.160Z,11.20
2018-09-17T08:02:48.160Z,10.90
2018-09-17T08:03:48.129Z,13.00
2018-09-17T08:04:48.107Z,12.60
2018-09-17T08:05:48.190Z,9.80
2018-09-17T08:06:48.115Z,11.10
2018-09-17T08:07:48.073Z,12.20
2018-09-17T08:08:48.097Z,12.20
2018-09-17T08:09:48.136Z,9.90
2018-09-17T08:10:48.040Z,13.10
2018-09-17T08:11:48.069Z,10.80
2018-09-17T08:12:48.042Z,11.70
2018-09-17T08:13:48.006Z,10.60
2018-09-17T08:14:47.998Z,8.90
2018-09-17T08:15:47.983Z,10.50
2018-09-17T08:16:48.110Z,9.80
2018-09-17T08:17:47.963Z,11.30
2018-09-17T08:18:47.968Z,11.90
2018-09-17T08:19:47.998Z,15.40
2018-09-17T08:20:47.929Z,10.40
2018-09-17T08:21:47.918Z,17.80
2018-09-17T08:22:47.926Z,12.20
2018-09-17T08:23:47.996Z,14.90
2018-09-17T08:24:47.934Z,10.80
2018-09-17T08:25:47.872Z,11.50
2018-09-17T08:26:47.899Z,10.60
2018-09-17T08:27:47.878Z,8.80
2018-09-17T08:28:47.840Z,13.30
2018-09-17T08:29:47.848Z,10.50
2018-09-17T08:30:47.838Z,9.50
2018-09-17T08:31:47.807Z,10.70
2018-09-17T08:32:47.798Z,11.20
2018-09-17T08:33:47.784Z,8.50
2018-09-17T08:34:47.802Z,10.40
2018-09-17T08:35:47.767Z,7.50
2018-09-17T08:36:47.763Z,12.00
2018-09-17T08:37:47.788Z,12.30
2018-09-17T08:38:47.730Z,10.30
2018-09-17T08:39:47.717Z,10.00
2018-09-17T08:40:47.789Z,10.20
2018-09-17T08:41:47.739Z,11.80
2018-09-17T08:42:47.712Z,12.60
2018-09-17T08:43:47.701Z,6.80
2018-09-17T08:44:47.709Z,12.20
2018-09-17T08:45:47.652Z,8.40
2018-09-17T08:46:47.643Z,10.50
2018-09-17T08:47:47.686Z,9.30
2018-09-17T08:48:47.648Z,9.50
2018-09-17T08:49:47.608Z,8.80
2018-09-17T08:50:47.599Z,10.70
2018-09-17T08:51:47.588Z,9.50
2018-09-17T08:52:47.638Z,9.10
2018-09-17T08:53:47.580Z,11.90
2018-09-17T08:54:47.553Z,8.90
2018-09-17T08:55:47.546Z,9.40
2018-09-17T08:56:47.572Z,9.20
2018-09-17T08:57:47.523Z,9.90
2018-09-17T08:58:47.545Z,9.10
2018-09-17T08:59:47.511Z,9.40
2018-09-17T09:00:47.550Z,8.70
2018-09-17T09:01:47.490Z,12.80
2018-09-17T09:02:47.498Z,9.70
2018-09-17T09:03:47.497Z,10.30
2018-09-17T09:04:47.445Z,10.60
2018-09-17T09:05:47.456Z,11.60
2018-09-17T09:06:47.445Z,9.50
2018-09-17T09:07:47.412Z,10.40
2018-09-17T09:08:47.398Z,10.70
2018-09-17T09:09:47.388Z,12.10
2018-09-17T09:10:47.400Z,11.80
2018-09-17T09:11:47.399Z,10.50
2018-09-17T09:12:47.386Z,9.40
2018-09-17T09:13:47.343Z,12.30
2018-09-17T09:14:47.332Z,10.00
2018-09-17T09:15:47.345Z,8.30
2018-09-17T09:16:47.312Z,10.00
2018-09-17T09:17:47.300Z,11.00
2018-09-17T09:18:47.307Z,9.50
2018-09-17T09:19:54.957Z,7.90
2018-09-17T09:20:47.334Z,10.90
2018-09-17T09:21:47.284Z,9.00
2018-09-17T09:22:47.278Z,8.80
2018-09-17T09:23:47.268Z,8.80
2018-09-17T09:24:47.532Z,7.50
2018-09-17T09:25:47.308Z,9.80
2018-09-17T09:26:47.219Z,8.20
2018-09-17T09:27:47.189Z,8.10
2018-09-17T09:28:47.244Z,8.00
2018-09-17T09:29:47.273Z,9.00
2018-09-17T09:30:47.191Z,6.20
2018-09-17T09:31:47.148Z,9.00
2018-09-17T09:32:47.176Z,8.20
2018-09-17T09:33:47.128Z,7.20
2018-09-17T09:34:47.114Z,7.70
2018-09-17T09:35:47.124Z,11.20
2018-09-17T09:36:47.163Z,7.20
2018-09-17T09:37:47.079Z,8.20
2018-09-17T09:38:47.070Z,10.60
2018-09-17T09:39:47.080Z,6.90
2018-09-17T09:40:47.047Z,10.20
2018-09-17T09:41:47.054Z,10.10
2018-09-17T09:42:47.045Z,7.20
2018-09-17T09:43:47.013Z,7.20
2018-09-17T09:44:47.052Z,7.70
2018-09-17T09:45:46.994Z,7.10
2018-09-17T09:46:46.981Z,7.70
2018-09-17T09:47:47.064Z,6.80
2018-09-17T09:48:46.962Z,7.20
2018-09-17T09:49:46.949Z,9.10
2018-09-17T09:50:46.953Z,8.40
2018-09-17T09:51:46.978Z,6.50
2018-09-17T09:52:46.956Z,9.50
2018-09-17T09:53:46.904Z,7.00
2018-09-17T09:54:46.905Z,6.70
2018-09-17T09:55:46.883Z,8.60
2018-09-17T09:56:46.872Z,6.40
2018-09-17T09:57:46.874Z,9.00
2018-09-17T09:58:46.892Z,7.40
2018-09-17T09:59:46.864Z,7.50
2018-09-17T10:00:46.827Z,7.90
2018-09-17T10:01:46.843Z,7.90
2018-09-17T10:02:46.808Z,6.50
2018-09-17T10:03:46.795Z,6.30
2018-09-17T10:04:46.785Z,5.10
2018-09-17T10:05:46.801Z,8.00
2018-09-17T10:06:46.803Z,4.40
2018-09-17T10:07:46.750Z,6.00
2018-09-17T10:08:46.739Z,8.10
2018-09-17T10:09:46.729Z,4.90
2018-09-17T10:10:46.718Z,5.10
2018-09-17T10:11:46.739Z,5.80
2018-09-17T10:12:46.854Z,4.60
2018-09-17T10:13:46.683Z,4.60
2018-09-17T10:14:46.674Z,4.80
2018-09-17T10:15:46.666Z,11.10
2018-09-17T10:16:46.651Z,6.30
2018-09-17T10:17:46.654Z,4.70
2018-09-17T10:18:46.687Z,3.60
2018-09-17T10:19:46.620Z,6.00
2018-09-17T10:20:46.604Z,5.80
2018-09-17T10:21:46.593Z,3.20
2018-09-17T10:22:46.611Z,4.20
2018-09-17T10:23:54.791Z,4.90
2018-09-17T10:24:46.568Z,4.60
2018-09-17T10:25:46.707Z,4.00
2018-09-17T10:26:46.777Z,5.40
2018-09-17T10:27:46.572Z,3.50
2018-09-17T10:28:46.530Z,3.90
2018-09-17T10:29:46.750Z,5.90
2018-09-17T10:30:46.551Z,4.90
2018-09-17T10:31:46.527Z,4.10
2018-09-17T10:32:46.556Z,6.00
2018-09-17T10:33:46.529Z,3.90
2018-09-17T10:34:46.477Z,5.60
2018-09-17T10:35:46.488Z,4.40
2018-09-17T10:36:46.630Z,4.00
2018-09-17T10:37:46.481Z,3.80
2018-09-17T10:38:46.632Z,3.30
2018-09-17T10:39:46.393Z,4.90
2018-09-17T10:40:46.439Z,3.20
2018-09-17T10:41:46.380Z,4.30
2018-09-17T10:42:54.375Z,3.10
2018-09-17T10:43:46.355Z,6.40
2018-09-17T10:44:46.403Z,3.40
2018-09-17T10:45:46.331Z,3.90
2018-09-17T10:46:46.389Z,2.30
2018-09-17T10:47:46.405Z,3.50
2018-09-17T10:48:46.418Z,4.50
2018-09-17T10:49:46.323Z,5.40
2018-09-17T10:50:46.292Z,3.50
2018-09-17T10:51:46.461Z,4.40
2018-09-17T10:52:46.274Z,3.40
2018-09-17T10:53:46.313Z,6.20
2018-09-17T10:54:46.232Z,2.90
2018-09-17T10:55:46.235Z,3.40
2018-09-17T10:56:46.260Z,3.50
2018-09-17T10:57:46.193Z,3.50
2018-09-17T10:58:46.185Z,2.90
2018-09-17T10:59:46.207Z,4.20
2018-09-17T11:00:46.215Z,4.00
2018-09-17T11:01:55.158Z,6.00
2018-09-17T11:02:46.178Z,2.80
2018-09-17T11:03:46.145Z,3.80
2018-09-17T11:04:46.119Z,3.10
2018-09-17T11:05:46.312Z,2.70
2018-09-17T11:06:46.355Z,2.70
2018-09-17T11:07:46.179Z,3.50
2018-09-17T11:08:46.109Z,5.30
2018-09-17T11:09:46.062Z,2.30
2018-09-17T11:10:46.081Z,3.80
2018-09-17T11:11:46.041Z,3.90
2018-09-17T11:12:46.032Z,4.20
2018-09-17T11:13:46.078Z,3.60
2018-09-17T11:14:46.013Z,2.30
2018-09-17T11:15:46.001Z,3.80
2018-09-17T11:16:46.010Z,4.10
2018-09-17T11:17:46.023Z,5.20
2018-09-17T11:18:45.966Z,3.70
2018-09-17T11:19:46.114Z,3.50
2018-09-17T11:20:45.945Z,6.30
2018-09-17T11:21:53.996Z,3.00
2018-09-17T11:22:45.970Z,4.30
2018-09-17T11:23:45.934Z,2.80
2018-09-17T11:24:45.901Z,3.70
2018-09-17T11:25:45.946Z,3.80
2018-09-17T11:26:46.137Z,3.20
2018-09-17T11:27:45.990Z,2.60
2018-09-17T11:28:45.912Z,4.70
2018-09-17T11:29:45.845Z,4.40
2018-09-17T11:30:45.856Z,4.00
2018-09-17T11:31:45.898Z,3.30
2018-09-17T11:32:45.810Z,3.00
2018-09-17T11:33:45.801Z,4.70
2018-09-17T11:34:45.815Z,4.70
2018-09-17T11:35:45.777Z,4.50
2018-09-17T11:36:45.765Z,4.30
2018-09-17T11:37:45.777Z,3.80
2018-09-17T11:38:45.745Z,4.10
2018-09-17T11:39:45.774Z,2.30
2018-09-17T11:40:54.190Z,2.80
2018-09-17T11:41:45.749Z,4.00
2018-09-17T11:42:45.701Z,4.30
2018-09-17T11:43:45.754Z,2.60
2018-09-17T11:44:45.680Z,3.10
2018-09-17T11:45:45.696Z,2.60
2018-09-17T11:46:45.713Z,3.50
2018-09-17T11:47:45.700Z,2.70
2018-09-17T11:48:45.663Z,3.20
2018-09-17T11:49:46.006Z,2.20
2018-09-17T11:50:45.700Z,4.90
2018-09-17T11:51:45.906Z,3.00
2018-09-17T11:52:45.594Z,4.90
2018-09-17T11:53:45.669Z,4.30
2018-09-17T11:54:45.825Z,3.00
2018-09-17T11:55:45.582Z,4.90
2018-09-17T11:56:45.589Z,3.30
2018-09-17T11:57:45.536Z,3.90
2018-09-17T11:58:45.586Z,4.30
2018-09-17T12:01:00.408Z,3.40
2018-09-17T12:02:00.689Z,8.10
2018-09-17T12:03:00.413Z,3.50
2018-09-17T12:04:00.454Z,3.60
2018-09-17T12:05:00.301Z,2.90
2018-09-17T12:06:00.267Z,3.50
2018-09-17T12:07:00.288Z,3.20
2018-09-17T12:08:00.237Z,6.10
2018-09-17T12:09:00.226Z,6.60
2018-09-17T12:10:00.251Z,3.90
2018-09-17T12:11:00.284Z,4.70
2018-09-17T12:12:00.217Z,7.70
2018-09-17T12:13:00.203Z,4.60
2018-09-17T12:14:00.256Z,4.70
2018-09-17T12:15:00.163Z,5.30
2018-09-17T12:16:00.151Z,5.60
2018-09-17T12:17:00.203Z,3.50
2018-09-17T12:18:00.150Z,4.90
2018-09-17T12:19:00.155Z,5.60
2018-09-17T12:20:08.152Z,6.50
2018-09-17T12:21:00.156Z,4.50
2018-09-17T12:22:00.086Z,4.50
2018-09-17T12:23:00.123Z,6.30
2018-09-17T12:24:00.397Z,4.20
2018-09-17T12:25:00.253Z,4.40
2018-09-17T12:26:00.090Z,4.00
2018-09-17T12:27:00.032Z,5.20
2018-09-17T12:28:00.071Z,5.60
2018-09-17T12:29:00.021Z,5.70
2018-09-17T12:30:00.005Z,3.30
2018-09-17T12:31:00.158Z,5.80
2018-09-17T12:31:59.983Z,7.40
2018-09-17T12:33:00.012Z,5.00
2018-09-17T12:34:00.090Z,5.80
2018-09-17T12:34:59.988Z,6.90
2018-09-17T12:35:59.939Z,4.90
2018-09-17T12:36:59.947Z,6.70
2018-09-17T12:37:59.935Z,4.40
2018-09-17T12:39:08.062Z,5.60
2018-09-17T12:39:59.954Z,5.60
2018-09-17T12:40:59.882Z,3.80
2018-09-17T12:41:59.942Z,2.80
2018-09-17T12:42:59.987Z,8.20
2018-09-17T12:43:59.875Z,6.10
2018-09-17T12:44:59.864Z,4.20
2018-09-17T12:45:59.898Z,6.00
2018-09-17T12:46:59.865Z,5.00
2018-09-17T12:47:59.844Z,5.00
2018-09-17T12:48:59.895Z,3.60
2018-09-17T12:49:59.941Z,5.30
2018-09-17T12:50:59.919Z,6.30
2018-09-17T12:51:59.857Z,6.50
2018-09-17T12:52:59.834Z,4.80
2018-09-17T12:53:59.865Z,4.50
2018-09-17T12:54:59.774Z,4.20
2018-09-17T12:55:59.731Z,3.00
2018-09-17T12:56:59.745Z,4.60
2018-09-17T12:59:13.794Z,3.00
2018-09-17T13:00:13.738Z,4.50
2018-09-17T13:01:13.752Z,4.50
2018-09-17T13:02:13.934Z,4.50
2018-09-17T13:03:13.803Z,4.20
2018-09-17T13:04:13.713Z,4.20
2018-09-17T13:05:13.721Z,4.60
2018-09-17T13:06:13.672Z,4.40
2018-09-17T13:07:13.711Z,6.30
2018-09-17T13:08:13.652Z,2.30
2018-09-17T13:09:13.636Z,3.00
2018-09-17T13:10:13.646Z,5.30